KIWD Weather

FAA AWOS (Automated Weather Observing System)

Weather observations for the last 3 days click here.

KIWD

METAR
KIWD 201256Z AUTO 10007KT 10SM OVC005 12/12 A3006 RMK AO2 SLP183 T01220117 PNO $
KIWD 201156Z AUTO 09006KT 10SM OVC005 12/12 A3005 RMK AO2 SLP178 6//// 7//// T01220117 10122 20117 58006 PNO $
TAF
KIWD 201214Z 2012/2112 08006KT 5SM BR VCSH OVC005 FM201500 09010G15KT 4SM BR VCSH OVC005 FM201900 09011G18KT 4SM -RA OVC008 FM210000 08011G18KT 5SM RA OVC006 WS015/11040KT FM210400 24010G18KT 3SM -RA OVC003 WS020/23040KT FM210900 31011G21KT 6SM -SHRA OVC008